Time;durP1;ratioP1;P1;durP2;ratioP2;P2;SDS_P1;SDS_P2;PMS_P1;PMS_P2;Temp;Humidity;BMP_temperature;BMP_pressure;BME280_temperature;BME280_humidity;BME280_pressure;Samples;Min_cycle;Max_cycle;Signal;HPM_P1;HPM_P2
2024/03/13 00:00:14;;;;;;;22.27;15.60;;;8.50;99.90;;;;;;5050705;28;20624;-74
2024/03/13 00:02:41;;;;;;;26.17;16.30;;;8.50;99.90;;;;;;5050553;28;20639;-73
2024/03/13 00:05:10;;;;;;;31.43;16.03;;;8.50;99.90;;;;;;5050543;28;20202;-72
2024/03/13 00:07:37;;;;;;;25.23;16.37;;;8.40;99.90;;;;;;5052337;28;20179;-74
2024/03/13 00:10:09;;;;;;;27.67;16.37;;;8.50;99.90;;;;;;5054316;28;20199;-74
2024/03/13 00:12:35;;;;;;;28.83;15.93;;;8.50;99.90;;;;;;5067626;28;20209;-73
2024/03/13 00:15:03;;;;;;;25.43;15.93;;;8.40;99.90;;;;;;5073997;28;20202;-73
2024/03/13 00:17:30;;;;;;;30.20;16.93;;;8.40;99.90;;;;;;5074206;28;20214;-73
2024/03/13 00:19:55;;;;;;;25.90;16.17;;;8.50;99.90;;;;;;5074085;28;20666;-72
2024/03/13 00:22:22;;;;;;;26.07;16.03;;;8.40;99.90;;;;;;5073987;28;20173;-72
2024/03/13 00:24:49;;;;;;;23.73;16.23;;;8.40;99.90;;;;;;5073644;28;20181;-74
2024/03/13 00:27:15;;;;;;;27.00;16.13;;;8.40;99.90;;;;;;5073734;28;20201;-72
2024/03/13 00:29:42;;;;;;;22.60;15.80;;;8.50;99.90;;;;;;5074485;28;20276;-73
2024/03/13 00:32:07;;;;;;;25.57;16.20;;;8.50;99.90;;;;;;5075071;28;20174;-72
2024/03/13 00:34:34;;;;;;;27.63;16.33;;;8.50;99.90;;;;;;5074597;28;20263;-72
2024/03/13 00:37:00;;;;;;;25.47;15.93;;;8.40;99.90;;;;;;5075825;28;20236;-72
2024/03/13 00:39:26;;;;;;;25.70;17.10;;;8.40;99.90;;;;;;5073716;28;20270;-72
2024/03/13 00:41:52;;;;;;;25.63;15.43;;;8.40;99.90;;;;;;5061835;28;20179;-72
2024/03/13 00:44:18;;;;;;;25.13;16.33;;;8.40;99.90;;;;;;5053267;28;20186;-73
2024/03/13 00:46:43;;;;;;;29.30;15.70;;;8.40;99.90;;;;;;5053653;28;20202;-73
2024/03/13 00:49:09;;;;;;;30.80;15.63;;;8.40;99.90;;;;;;5053231;28;20220;-73
2024/03/13 00:51:35;;;;;;;25.43;15.70;;;8.40;99.90;;;;;;5053754;28;20206;-73
2024/03/13 00:54:05;;;;;;;25.47;15.37;;;8.40;99.90;;;;;;5053157;28;20351;-73
2024/03/13 00:56:33;;;;;;;27.93;15.67;;;8.40;99.90;;;;;;5053111;28;20647;-73
2024/03/13 00:58:59;;;;;;;20.43;13.60;;;8.40;99.90;;;;;;5053467;28;20424;-72
2024/03/13 01:01:26;;;;;;;25.60;13.63;;;8.40;99.90;;;;;;5053124;28;20234;-73
2024/03/13 01:03:57;;;;;;;27.57;14.57;;;8.40;99.90;;;;;;5053547;28;20177;-74
2024/03/13 01:06:28;;;;;;;21.93;14.33;;;8.40;99.90;;;;;;5053954;28;20167;-73
2024/03/13 01:08:58;;;;;;;28.17;14.30;;;8.50;99.90;;;;;;5073396;28;20193;-73
2024/03/13 01:11:26;;;;;;;21.03;13.13;;;8.40;99.90;;;;;;5073302;28;20196;-73
2024/03/13 01:13:52;;;;;;;20.97;13.43;;;8.50;99.90;;;;;;5072853;28;20547;-73
2024/03/13 01:16:18;;;;;;;20.47;13.33;;;8.50;99.90;;;;;;5073073;28;20174;-73
2024/03/13 01:18:43;;;;;;;21.77;12.83;;;8.50;99.90;;;;;;5072897;28;20174;-73
2024/03/13 01:21:11;;;;;;;20.40;12.53;;;8.50;99.90;;;;;;5072666;28;20221;-73
2024/03/13 01:23:43;;;;;;;19.30;11.93;;;8.50;99.90;;;;;;5072961;28;20174;-73
2024/03/13 01:26:09;;;;;;;21.20;12.37;;;8.50;99.90;;;;;;5073064;28;20194;-73
2024/03/13 01:28:39;;;;;;;17.53;12.70;;;8.50;99.90;;;;;;5072715;28;20208;-74
2024/03/13 01:31:08;;;;;;;15.70;12.37;;;8.60;99.90;;;;;;5072990;28;20213;-73
2024/03/13 01:33:38;;;;;;;19.53;12.60;;;8.60;99.90;;;;;;5064775;28;20191;-73
2024/03/13 01:36:05;;;;;;;18.53;12.33;;;8.50;99.90;;;;;;5052716;28;20187;-73
2024/03/13 01:38:33;;;;;;;17.63;12.40;;;8.60;99.90;;;;;;5052657;28;20250;-73
2024/03/13 01:55:06;;;;;;;20.13;12.13;;;8.60;99.90;;;;;;5072165;28;20577;-73
2024/03/13 01:57:45;;;;;;;22.83;13.43;;;8.60;99.90;;;;;;5072305;28;20166;-73
2024/03/13 02:02:55;;;;;;;19.30;13.53;;;8.60;99.90;;;;;;5053831;28;20197;-73
2024/03/13 02:05:21;;;;;;;20.90;14.40;;;8.60;99.90;;;;;;5052270;28;20171;-74
2024/03/13 02:07:48;;;;;;;22.63;13.87;;;8.70;99.90;;;;;;5052187;28;20185;-73
2024/03/13 02:10:14;;;;;;;22.37;14.57;;;8.70;99.90;;;;;;5051804;28;20269;-73
2024/03/13 02:13:10;;;;;;;22.17;14.47;;;8.70;99.90;;;;;;5051814;28;20171;-73
2024/03/13 02:15:37;;;;;;;22.40;14.80;;;8.70;99.90;;;;;;5052155;28;20257;-73
2024/03/13 02:18:14;;;;;;;20.23;14.07;;;8.70;99.90;;;;;;5052226;28;20174;-73
2024/03/13 02:20:40;;;;;;;27.20;15.03;;;8.70;99.90;;;;;;5051755;28;20197;-73
2024/03/13 02:23:07;;;;;;;22.93;14.80;;;8.70;99.90;;;;;;5061568;28;20185;-73
2024/03/13 02:25:33;;;;;;;23.77;15.13;;;8.70;99.90;;;;;;5071728;28;20174;-72
2024/03/13 02:28:00;;;;;;;20.50;14.53;;;8.70;99.90;;;;;;5071504;28;20178;-73
2024/03/13 02:30:26;;;;;;;18.43;13.13;;;8.70;99.90;;;;;;5071097;28;20201;-72
2024/03/13 02:32:52;;;;;;;23.07;14.63;;;8.70;99.90;;;;;;5070326;28;20166;-72
2024/03/13 02:35:18;;;;;;;22.63;14.97;;;8.70;99.90;;;;;;5051711;28;20250;-73
2024/03/13 02:37:44;;;;;;;19.60;14.63;;;8.70;99.90;;;;;;5051669;28;20203;-72
2024/03/13 02:40:13;;;;;;;24.90;14.73;;;8.70;99.90;;;;;;5051617;28;20567;-73
2024/03/13 02:42:38;;;;;;;25.50;15.50;;;8.70;99.90;;;;;;5061585;28;20543;-73
2024/03/13 02:45:05;;;;;;;23.87;15.07;;;8.70;99.90;;;;;;5051333;28;20182;-72
2024/03/13 02:47:31;;;;;;;19.57;13.30;;;8.80;99.90;;;;;;5054590;28;20170;-73
2024/03/13 02:49:57;;;;;;;17.87;13.93;;;8.80;99.90;;;;;;5071128;28;20216;-73
2024/03/13 02:52:26;;;;;;;20.07;13.03;;;8.80;99.90;;;;;;5071508;28;20166;-73
2024/03/13 02:54:51;;;;;;;21.17;13.97;;;8.80;99.90;;;;;;5070058;28;20197;-72
2024/03/13 02:57:18;;;;;;;19.33;13.73;;;8.80;99.90;;;;;;5071881;28;20173;-72
2024/03/13 02:59:44;;;;;;;24.13;15.00;;;8.80;99.90;;;;;;5066608;28;20201;-72
2024/03/13 03:02:12;;;;;;;16.73;13.73;;;8.80;99.90;;;;;;5051381;28;20175;-73
2024/03/13 03:04:38;;;;;;;19.23;13.83;;;8.80;99.90;;;;;;5050969;28;20194;-72
2024/03/13 03:07:03;;;;;;;16.37;13.40;;;8.90;99.90;;;;;;5051439;28;20178;-73
2024/03/13 03:09:30;;;;;;;22.23;15.03;;;8.90;99.90;;;;;;5051304;28;20190;-72
2024/03/13 03:11:58;;;;;;;18.97;15.07;;;8.90;99.90;;;;;;5051550;28;20540;-72
2024/03/13 03:14:24;;;;;;;20.53;14.57;;;8.90;99.90;;;;;;5051144;28;20221;-72
2024/03/13 03:16:54;;;;;;;20.27;14.67;;;8.80;99.90;;;;;;5051298;28;20175;-72
2024/03/13 03:19:23;;;;;;;18.23;14.60;;;8.90;99.90;;;;;;5051582;28;20183;-72
2024/03/13 03:21:48;;;;;;;20.57;15.27;;;8.90;99.90;;;;;;5050069;28;20183;-73
2024/03/13 03:24:17;;;;;;;23.23;16.40;;;8.90;99.90;;;;;;5065592;28;20193;-72
2024/03/13 03:26:43;;;;;;;19.03;14.93;;;8.90;99.90;;;;;;5070947;28;20253;-72
2024/03/13 03:29:11;;;;;;;21.00;13.90;;;8.80;99.90;;;;;;5055327;28;20290;-72
2024/03/13 03:31:37;;;;;;;19.33;13.97;;;8.80;99.90;;;;;;5050888;28;20221;-72
2024/03/13 03:34:02;;;;;;;20.73;15.53;;;8.80;99.90;;;;;;5050813;28;20234;-72
2024/03/13 03:36:28;;;;;;;21.50;14.57;;;8.80;99.90;;;;;;5051190;28;20265;-73
2024/03/13 03:38:53;;;;;;;18.27;14.00;;;8.80;99.90;;;;;;5051246;28;20175;-73
2024/03/13 03:41:19;;;;;;;21.37;14.43;;;8.80;99.90;;;;;;5051350;28;20250;-73
2024/03/13 03:43:44;;;;;;;21.27;14.70;;;8.80;99.90;;;;;;5054345;28;20686;-73
2024/03/13 03:46:12;;;;;;;22.73;14.87;;;8.80;99.90;;;;;;5054999;28;20258;-72
2024/03/13 03:48:40;;;;;;;20.00;14.80;;;8.90;99.90;;;;;;5054505;28;20201;-72
2024/03/13 03:51:06;;;;;;;19.70;14.43;;;8.90;99.90;;;;;;5052962;23;20311;-85
2024/03/13 03:53:31;;;;;;;22.13;15.20;;;8.90;99.90;;;;;;5042233;28;20230;-85
2024/03/13 03:55:58;;;;;;;19.73;15.00;;;8.90;99.90;;;;;;5042422;28;20184;-85
2024/03/13 03:58:24;;;;;;;19.23;14.33;;;8.90;99.90;;;;;;5059515;28;20261;-85
2024/03/13 04:00:52;;;;;;;20.50;14.83;;;8.90;99.90;;;;;;5044105;28;20195;-85
2024/03/13 04:03:20;;;;;;;25.13;14.27;;;8.90;99.90;;;;;;5043358;28;20176;-91
2024/03/13 04:05:46;;;;;;;18.00;13.60;;;8.90;99.90;;;;;;5043563;28;20264;-85
2024/03/13 04:08:14;;;;;;;20.50;13.97;;;8.90;99.90;;;;;;5043934;28;20219;-85
2024/03/13 04:10:39;;;;;;;19.57;14.20;;;8.90;99.90;;;;;;5060957;28;20171;-85
2024/03/13 04:13:05;;;;;;;19.37;14.27;;;9.00;99.90;;;;;;5042801;28;20564;-85
2024/03/13 04:15:30;;;;;;;22.70;14.87;;;8.90;99.90;;;;;;5043243;28;20175;-85
2024/03/13 04:17:56;;;;;;;19.10;13.83;;;9.00;99.90;;;;;;5060181;28;20199;-85
2024/03/13 04:20:22;;;;;;;17.63;13.80;;;9.00;99.90;;;;;;5044304;28;20171;-85
2024/03/13 04:22:48;;;;;;;21.57;14.60;;;9.00;99.90;;;;;;5042702;28;20179;-84
2024/03/13 04:25:14;;;;;;;20.10;15.63;;;9.00;99.90;;;;;;5042832;28;20180;-85
2024/03/13 04:27:40;;;;;;;20.80;14.07;;;9.00;99.90;;;;;;5042657;28;20689;-86
2024/03/13 04:30:06;;;;;;;18.47;15.00;;;9.00;99.90;;;;;;5042287;28;20320;-85
2024/03/13 04:32:32;;;;;;;21.73;14.53;;;9.00;99.90;;;;;;5043051;28;20267;-85
2024/03/13 04:35:00;;;;;;;22.83;15.00;;;9.00;99.90;;;;;;5044048;28;20620;-85
2024/03/13 04:37:26;;;;;;;19.40;14.20;;;9.00;99.90;;;;;;5042513;28;20207;-85
2024/03/13 04:39:52;;;;;;;24.73;15.37;;;9.00;99.90;;;;;;5043685;28;20176;-86
2024/03/13 04:42:17;;;;;;;20.93;13.73;;;9.00;99.90;;;;;;5042496;28;20180;-86
2024/03/13 04:44:44;;;;;;;20.83;14.57;;;9.00;99.90;;;;;;5042103;28;20183;-86
2024/03/13 04:47:10;;;;;;;19.20;13.87;;;9.10;99.90;;;;;;5041921;28;20180;-85
2024/03/13 04:49:37;;;;;;;19.87;14.63;;;9.10;99.90;;;;;;5043405;28;20171;-86
2024/03/13 04:52:05;;;;;;;21.00;14.20;;;9.10;99.90;;;;;;5042072;28;20251;-86
2024/03/13 04:54:31;;;;;;;21.57;15.27;;;9.00;99.90;;;;;;5042679;28;20200;-85
2024/03/13 04:56:56;;;;;;;19.47;14.13;;;9.10;99.90;;;;;;5043341;28;20607;-85
2024/03/13 04:59:22;;;;;;;18.70;14.07;;;9.00;99.90;;;;;;5047519;28;20269;-85
2024/03/13 05:01:49;;;;;;;21.57;14.87;;;9.00;99.90;;;;;;5058993;28;20710;-85
2024/03/13 05:04:14;;;;;;;19.67;13.63;;;9.10;99.90;;;;;;5042308;28;20672;-86
2024/03/13 05:06:40;;;;;;;17.60;13.83;;;9.10;99.90;;;;;;5041854;28;20176;-85
2024/03/13 05:09:10;;;;;;;22.27;13.23;;;9.10;99.90;;;;;;5025516;28;20207;-85
2024/03/13 05:11:37;;;;;;;20.13;14.27;;;9.10;99.90;;;;;;5043522;28;20176;-86
2024/03/13 05:14:03;;;;;;;17.97;12.80;;;9.10;99.90;;;;;;5041638;28;20203;-85
2024/03/13 05:16:28;;;;;;;17.73;12.60;;;9.20;99.90;;;;;;5042011;28;20198;-85
2024/03/13 05:18:54;;;;;;;19.20;12.93;;;9.20;99.90;;;;;;5042597;28;20746;-85
2024/03/13 05:21:20;;;;;;;22.13;13.57;;;9.20;99.90;;;;;;5048249;28;20176;-86
2024/03/13 05:23:45;;;;;;;19.90;13.63;;;9.20;99.90;;;;;;5043490;28;20203;-85
2024/03/13 05:26:11;;;;;;;19.87;14.00;;;9.20;99.90;;;;;;5043648;28;20171;-85
2024/03/13 05:28:37;;;;;;;20.83;14.03;;;9.20;99.90;;;;;;5041662;28;20200;-85
2024/03/13 05:31:02;;;;;;;19.03;13.93;;;9.30;99.90;;;;;;5041224;28;20183;-85
2024/03/13 05:33:28;;;;;;;21.00;13.90;;;9.20;99.90;;;;;;5042001;28;20669;-85
2024/03/13 05:35:55;;;;;;;19.20;13.70;;;9.20;99.90;;;;;;5042959;28;20168;-85
2024/03/13 05:38:21;;;;;;;18.53;13.17;;;9.20;99.90;;;;;;5025183;28;20231;-85
2024/03/13 05:40:48;;;;;;;21.30;12.90;;;9.30;99.90;;;;;;5041138;28;20183;-86
2024/03/13 05:43:15;;;;;;;18.37;13.10;;;9.30;99.90;;;;;;5041386;28;20206;-85
2024/03/13 05:45:41;;;;;;;21.87;12.67;;;9.30;99.90;;;;;;5040735;28;20184;-88
2024/03/13 05:48:08;;;;;;;18.40;13.27;;;9.30;99.90;;;;;;5039861;28;20204;-86
2024/03/13 05:50:33;;;;;;;21.37;12.77;;;9.30;99.90;;;;;;5043581;28;20187;-85
2024/03/13 05:52:59;;;;;;;17.20;12.97;;;9.30;99.90;;;;;;5024695;28;20648;-86
2024/03/13 05:55:25;;;;;;;17.27;12.77;;;9.40;99.90;;;;;;5041603;28;20305;-85
2024/03/13 05:57:50;;;;;;;21.33;13.40;;;9.40;99.90;;;;;;5043352;28;20188;-85
2024/03/13 06:00:18;;;;;;;22.07;12.87;;;9.40;99.90;;;;;;5041773;28;20171;-86
2024/03/13 06:02:43;;;;;;;24.90;13.43;;;9.40;99.90;;;;;;5044596;28;20172;-85
2024/03/13 06:05:09;;;;;;;21.77;12.13;;;9.40;99.90;;;;;;5041358;28;20182;-86
2024/03/13 06:07:38;;;;;;;18.23;13.00;;;9.40;99.90;;;;;;5024360;28;20202;-85
2024/03/13 06:10:05;;;;;;;21.43;12.27;;;9.50;99.90;;;;;;5041390;28;20210;-85
2024/03/13 06:12:33;;;;;;;22.13;12.43;;;9.50;99.90;;;;;;5041081;28;20274;-86
2024/03/13 06:14:58;;;;;;;21.87;11.93;;;9.50;99.90;;;;;;5040530;28;20643;-86
2024/03/13 06:17:24;;;;;;;36.20;12.30;;;9.50;99.90;;;;;;5040173;28;20195;-86
2024/03/13 06:19:50;;;;;;;15.17;10.77;;;9.60;99.90;;;;;;5041773;28;20226;-86
2024/03/13 06:22:15;;;;;;;22.47;11.60;;;9.60;99.90;;;;;;5039572;28;20176;-86
2024/03/13 06:24:41;;;;;;;18.87;11.50;;;9.70;99.90;;;;;;5037791;28;20241;-85
2024/03/13 06:27:09;;;;;;;20.90;11.67;;;9.70;99.90;;;;;;5034267;28;20270;-86
2024/03/13 06:32:20;;;;;;;20.53;11.17;;;9.70;99.90;;;;;;5036916;28;20178;-86
2024/03/13 06:34:45;;;;;;;28.47;12.20;;;9.80;99.90;;;;;;5036757;28;20286;-86
2024/03/13 06:37:11;;;;;;;22.00;11.63;;;9.90;99.90;;;;;;5035127;28;20245;-86
2024/03/13 06:39:37;;;;;;;20.13;11.60;;;9.90;99.90;;;;;;5035962;28;20175;-87
2024/03/13 06:42:03;;;;;;;19.93;11.23;;;9.90;99.90;;;;;;5035767;28;20588;-88
2024/03/13 06:44:28;;;;;;;14.83;9.67;;;10.00;99.90;;;;;;5035112;28;20183;-88
2024/03/13 06:46:54;;;;;;;13.40;9.53;;;10.10;99.90;;;;;;5036134;28;20182;-87
2024/03/13 06:49:19;;;;;;;12.67;8.63;;;10.10;99.90;;;;;;5033693;28;20199;-89
2024/03/13 06:51:45;;;;;;;10.43;8.40;;;10.30;99.90;;;;;;5033995;28;20190;-86
2024/03/13 06:54:11;;;;;;;14.47;8.90;;;10.50;99.90;;;;;;5032555;28;20309;-85
2024/03/13 06:56:36;;;;;;;15.53;9.73;;;10.50;99.90;;;;;;5034663;28;20175;-85
2024/03/13 06:59:02;;;;;;;15.77;8.67;;;10.60;99.90;;;;;;5034701;28;20187;-85
2024/03/13 07:01:29;;;;;;;16.73;10.37;;;10.60;99.90;;;;;;5033864;28;20206;-84
2024/03/13 07:03:56;;;;;;;13.00;9.83;;;10.80;99.90;;;;;;5049771;28;20167;-86
2024/03/13 07:06:22;;;;;;;15.33;10.50;;;10.80;99.90;;;;;;5033066;28;20175;-85
2024/03/13 07:08:48;;;;;;;16.50;11.57;;;10.90;99.90;;;;;;5042293;28;20735;-87
2024/03/13 07:11:14;;;;;;;20.53;11.23;;;10.90;99.90;;;;;;5042255;28;20176;-85
2024/03/13 07:13:40;;;;;;;18.50;11.67;;;10.90;99.90;;;;;;5035586;28;20204;-85
2024/03/13 07:16:06;;;;;;;13.43;10.07;;;11.00;99.90;;;;;;5039305;28;20185;-85
2024/03/13 07:18:32;;;;;;;20.20;11.93;;;11.00;99.90;;;;;;5039550;28;20217;-85
2024/03/13 07:20:58;;;;;;;16.47;10.40;;;11.00;99.90;;;;;;5039001;28;20179;-86
2024/03/13 07:23:28;;;;;;;15.33;10.13;;;11.00;99.90;;;;;;5036252;28;20187;-86
2024/03/13 07:25:55;;;;;;;16.67;10.60;;;11.00;99.90;;;;;;5039518;28;20249;-85
2024/03/13 07:28:21;;;;;;;18.47;11.43;;;11.00;99.90;;;;;;5039903;28;20558;-86
2024/03/13 07:30:50;;;;;;;16.13;11.07;;;11.10;99.90;;;;;;5037178;28;20186;-85
2024/03/13 07:33:16;;;;;;;19.53;11.07;;;11.10;99.90;;;;;;5037240;28;20210;-86
2024/03/13 07:35:42;;;;;;;15.67;10.20;;;11.20;99.90;;;;;;5037317;28;20560;-86
2024/03/13 07:38:11;;;;;;;13.37;10.60;;;11.20;99.90;;;;;;5037415;28;20195;-85
2024/03/13 07:40:39;;;;;;;13.80;10.27;;;11.20;99.90;;;;;;5020651;28;20719;-85
2024/03/13 07:43:09;;;;;;;16.10;10.70;;;11.20;99.90;;;;;;5038666;28;20176;-86
2024/03/13 07:45:42;;;;;;;13.00;10.53;;;11.20;99.90;;;;;;5038084;28;20258;-85
2024/03/13 07:48:10;;;;;;;17.73;11.90;;;11.20;99.90;;;;;;5037409;28;20195;-85
2024/03/13 07:50:39;;;;;;;17.07;11.93;;;11.20;99.90;;;;;;5043109;28;20657;-86
2024/03/13 07:53:05;;;;;;;14.33;12.53;;;11.20;99.90;;;;;;5036216;28;20637;-85
2024/03/13 07:55:34;;;;;;;17.13;12.63;;;11.20;99.90;;;;;;5036051;28;20657;-85
2024/03/13 07:58:03;;;;;;;20.23;12.30;;;11.20;99.90;;;;;;5035526;28;20596;-86
2024/03/13 08:00:29;;;;;;;20.43;13.10;;;11.20;99.90;;;;;;5037077;28;20183;-86
2024/03/13 08:02:58;;;;;;;19.00;13.23;;;11.20;99.90;;;;;;5037572;28;20549;-86
2024/03/13 08:05:24;;;;;;;21.70;13.17;;;11.30;99.90;;;;;;5038050;28;20172;-84
2024/03/13 08:07:49;;;;;;;20.37;12.13;;;11.20;99.90;;;;;;5036742;28;20582;-86
2024/03/13 08:10:19;;;;;;;21.00;13.83;;;11.20;99.90;;;;;;5035448;28;20202;-85
2024/03/13 08:12:47;;;;;;;16.53;11.77;;;11.20;99.90;;;;;;5035482;28;20607;-85
2024/03/13 08:15:12;;;;;;;18.83;11.23;;;11.20;99.90;;;;;;5037065;28;20199;-86
2024/03/13 08:17:38;;;;;;;19.57;11.43;;;11.10;99.90;;;;;;5035433;28;20253;-84
2024/03/13 08:20:06;;;;;;;17.47;11.60;;;11.10;99.90;;;;;;5035301;28;20210;-84
2024/03/13 08:22:32;;;;;;;17.53;11.90;;;11.20;99.90;;;;;;5035842;28;20186;-84
2024/03/13 08:24:58;;;;;;;17.60;12.77;;;11.20;99.90;;;;;;5034976;28;20180;-87
2024/03/13 08:27:24;;;;;;;19.40;11.83;;;11.20;99.90;;;;;;5036321;28;20245;-85
2024/03/13 08:29:49;;;;;;;19.03;12.67;;;11.20;99.90;;;;;;5036999;28;20259;-86
2024/03/13 08:32:15;;;;;;;19.53;12.27;;;11.20;99.90;;;;;;5036491;28;20232;-85
2024/03/13 08:34:43;;;;;;;19.13;12.20;;;11.20;99.90;;;;;;5036793;28;20211;-86
2024/03/13 08:37:10;;;;;;;20.23;12.90;;;11.20;99.90;;;;;;5036859;28;20270;-85
2024/03/13 08:39:36;;;;;;;23.47;12.73;;;11.20;99.90;;;;;;5038067;28;20298;-86
2024/03/13 08:42:02;;;;;;;22.70;12.87;;;11.20;99.90;;;;;;5036483;28;20265;-88
2024/03/13 08:44:29;;;;;;;20.67;12.57;;;11.20;99.90;;;;;;5034652;28;20186;-86
2024/03/13 08:46:55;;;;;;;23.70;14.17;;;11.20;99.90;;;;;;5036301;28;20598;-86
2024/03/13 08:49:22;;;;;;;19.70;13.03;;;11.20;99.90;;;;;;5034811;28;20278;-86
2024/03/13 08:51:47;;;;;;;22.57;13.40;;;11.20;99.90;;;;;;5034583;28;20229;-87
2024/03/13 08:54:13;;;;;;;26.87;13.70;;;11.20;99.90;;;;;;5036312;28;20203;-85
2024/03/13 08:56:39;;;;;;;20.37;13.40;;;11.20;99.90;;;;;;5035640;28;20171;-85
2024/03/13 08:59:06;;;;;;;18.37;13.03;;;11.30;99.90;;;;;;5034495;28;20275;-85
2024/03/13 09:01:38;;;;;;;19.33;13.37;;;11.40;99.90;;;;;;5037025;28;20183;-85
2024/03/13 09:04:04;;;;;;;19.47;13.23;;;11.50;99.90;;;;;;5036491;28;20677;-85
2024/03/13 09:06:30;;;;;;;19.23;13.43;;;11.60;99.90;;;;;;5036524;28;20182;-85
2024/03/13 09:08:56;;;;;;;18.57;12.63;;;11.60;99.90;;;;;;5017491;28;20222;-85
2024/03/13 09:11:23;;;;;;;18.27;11.43;;;11.70;99.90;;;;;;5034299;28;20184;-86
2024/03/13 09:13:50;;;;;;;18.53;11.50;;;11.70;99.90;;;;;;5034948;28;20357;-90
2024/03/13 09:16:15;;;;;;;16.90;10.77;;;11.60;99.90;;;;;;5036330;28;20219;-88
2024/03/13 09:18:41;;;;;;;17.50;11.23;;;11.60;99.90;;;;;;5035767;28;20406;-85
2024/03/13 09:21:07;;;;;;;19.20;11.07;;;11.70;99.90;;;;;;5034074;28;20249;-85
2024/03/13 09:23:32;;;;;;;16.37;10.37;;;11.70;99.90;;;;;;5035254;28;20252;-85
2024/03/13 09:25:59;;;;;;;17.17;10.23;;;11.90;99.90;;;;;;5033667;28;20183;-86
2024/03/13 09:28:25;;;;;;;15.60;10.60;;;12.00;99.90;;;;;;5018931;28;20245;-85
2024/03/13 09:30:50;;;;;;;12.57;9.67;;;12.20;99.90;;;;;;5016153;28;20191;-85
2024/03/13 09:33:16;;;;;;;11.53;9.27;;;12.20;99.90;;;;;;5034835;28;20175;-86
2024/03/13 09:35:42;;;;;;;14.53;9.97;;;12.30;99.90;;;;;;5034434;28;20245;-86
2024/03/13 09:38:10;;;;;;;15.13;8.67;;;12.30;99.90;;;;;;5033575;28;20210;-85
2024/03/13 09:40:38;;;;;;;16.33;9.03;;;12.30;99.90;;;;;;5033867;28;20206;-86
2024/03/13 09:43:05;;;;;;;11.87;9.20;;;12.40;99.90;;;;;;5034034;28;20183;-85
2024/03/13 09:45:31;;;;;;;10.53;7.97;;;12.50;99.90;;;;;;5033867;28;20191;-87
2024/03/13 09:47:56;;;;;;;9.87;8.27;;;12.70;99.90;;;;;;5034483;28;20195;-86
2024/03/13 09:50:22;;;;;;;10.07;7.90;;;12.80;99.90;;;;;;5034986;28;20203;-86
2024/03/13 09:52:50;;;;;;;9.00;7.57;;;12.90;99.90;;;;;;5036695;28;20179;-86
2024/03/13 09:55:40;;;;;;;13.20;8.47;;;13.00;99.90;;;;;;5047627;28;20234;-86
2024/03/13 09:58:07;;;;;;;9.00;8.10;;;13.00;99.90;;;;;;5046036;28;20219;-87
2024/03/13 10:00:33;;;;;;;11.40;7.87;;;13.00;99.90;;;;;;5043149;28;20202;-86
2024/03/13 10:03:07;;;;;;;11.53;7.33;;;13.20;99.90;;;;;;5042461;28;20171;-87
2024/03/13 10:05:34;;;;;;;7.03;6.40;;;13.30;99.90;;;;;;5033448;28;20732;-87
2024/03/13 10:08:03;;;;;;;6.67;6.07;;;13.40;99.90;;;;;;5032790;28;20196;-87
2024/03/13 10:10:30;;;;;;;6.00;5.40;;;13.40;99.90;;;;;;5032854;28;20197;-87
2024/03/13 10:12:57;;;;;;;6.10;5.60;;;13.40;99.90;;;;;;5032478;28;20190;-87
2024/03/13 10:15:23;;;;;;;5.70;5.20;;;13.40;99.90;;;;;;5032500;28;20203;-88
2024/03/13 10:18:05;;;;;;;5.37;4.90;;;13.40;99.90;;;;;;5032849;28;20246;-87
2024/03/13 10:20:45;;;;;;;5.57;5.03;;;13.30;99.90;;;;;;5031220;28;20218;-88
2024/03/13 10:23:14;;;;;;;5.50;5.00;;;13.20;99.90;;;;;;5030114;28;20188;-87
2024/03/13 10:25:42;;;;;;;5.60;5.20;;;13.20;99.90;;;;;;5032424;28;20171;-88
2024/03/13 10:28:11;;;;;;;6.70;4.63;;;13.20;99.90;;;;;;5032859;28;20199;-88
2024/03/13 10:30:37;;;;;;;5.67;4.97;;;13.20;99.90;;;;;;5033031;28;20175;-88
2024/03/13 10:33:03;;;;;;;5.00;4.50;;;13.30;99.90;;;;;;5035563;28;20176;-87
2024/03/13 10:35:29;;;;;;;5.33;4.60;;;13.30;99.90;;;;;;5050884;28;20167;-88
2024/03/13 10:37:56;;;;;;;4.87;4.33;;;13.20;99.90;;;;;;5017683;28;20207;-87
2024/03/13 10:40:24;;;;;;;4.67;4.13;;;13.20;99.90;;;;;;5035124;28;20164;-87
2024/03/13 10:42:50;;;;;;;5.37;4.33;;;13.30;99.90;;;;;;5025534;28;20183;-87
2024/03/13 10:45:17;;;;;;;4.53;4.00;;;13.50;99.90;;;;;;5035235;28;20230;-86
2024/03/13 10:47:46;;;;;;;4.50;4.10;;;13.70;99.90;;;;;;5012997;28;20295;-88
2024/03/13 10:50:12;;;;;;;7.10;4.63;;;13.70;99.90;;;;;;5012719;28;20200;-87
2024/03/13 10:52:39;;;;;;;4.37;4.07;;;13.70;99.90;;;;;;5012649;28;20616;-87
2024/03/13 10:55:07;;;;;;;4.33;4.03;;;13.70;99.90;;;;;;5013309;28;20609;-88
2024/03/13 10:57:36;;;;;;;4.83;4.27;;;13.80;99.90;;;;;;5012437;28;20701;-87
2024/03/13 11:00:11;;;;;;;4.00;3.43;;;13.80;99.90;;;;;;5015397;28;20649;-87
2024/03/13 11:02:39;;;;;;;4.83;3.87;;;13.80;99.90;;;;;;5032394;28;20178;-86
2024/03/13 11:05:11;;;;;;;5.03;4.20;;;13.90;99.90;;;;;;5031936;28;20288;-90
2024/03/13 11:07:40;;;;;;;5.03;4.40;;;14.10;99.90;;;;;;5033520;28;20222;-87
2024/03/13 11:10:24;;;;;;;4.57;4.17;;;14.10;99.90;;;;;;5032479;28;20178;-87
2024/03/13 11:12:51;;;;;;;6.53;5.13;;;14.30;99.90;;;;;;5044384;28;20722;-87
2024/03/13 11:15:37;;;;;;;5.47;4.97;;;14.30;99.90;;;;;;5034172;28;20206;-87
2024/03/13 11:18:04;;;;;;;5.47;4.63;;;14.30;99.90;;;;;;5034364;28;20227;-89
2024/03/13 11:20:37;;;;;;;5.87;5.37;;;14.30;99.90;;;;;;5033194;28;20171;-87
2024/03/13 11:23:13;;;;;;;8.73;5.47;;;14.20;99.90;;;;;;5032124;28;20175;-86
2024/03/13 11:25:41;;;;;;;5.60;5.07;;;14.30;99.90;;;;;;5032346;28;20175;-90
2024/03/13 11:28:24;;;;;;;5.23;4.73;;;14.50;99.90;;;;;;5032141;28;20676;-88
2024/03/13 11:30:51;;;;;;;6.77;5.03;;;14.50;99.90;;;;;;5051755;23;20207;-73
2024/03/13 11:33:17;;;;;;;5.37;4.77;;;14.50;99.90;;;;;;5070864;28;20181;-72
2024/03/13 11:35:43;;;;;;;6.43;4.60;;;14.40;99.90;;;;;;5070946;28;20170;-73
2024/03/13 11:38:10;;;;;;;6.43;5.27;;;14.40;99.90;;;;;;5070898;28;20173;-73
2024/03/13 11:40:36;;;;;;;5.60;4.43;;;14.50;99.90;;;;;;5071226;28;20205;-73
2024/03/13 11:43:05;;;;;;;7.33;4.57;;;14.40;99.90;;;;;;5055089;28;20544;-72
2024/03/13 11:45:44;;;;;;;4.70;4.20;;;14.30;99.90;;;;;;5051451;28;20203;-73
2024/03/13 11:48:21;;;;;;;4.73;4.33;;;14.20;99.90;;;;;;5051107;28;20225;-73
2024/03/13 11:51:01;;;;;;;5.23;4.47;;;14.00;99.90;;;;;;5055736;28;20560;-73
2024/03/13 11:53:31;;;;;;;4.53;4.23;;;13.90;99.90;;;;;;5061131;28;20551;-73
2024/03/13 11:55:59;;;;;;;4.70;4.40;;;13.80;99.90;;;;;;5061126;28;20164;-74
2024/03/13 11:58:28;;;;;;;5.83;4.43;;;13.70;99.90;;;;;;5057821;28;20225;-74
2024/03/13 12:00:54;;;;;;;5.93;4.63;;;13.70;99.90;;;;;;5050952;28;20182;-72
2024/03/13 12:03:20;;;;;;;8.87;5.27;;;13.60;99.90;;;;;;5052483;28;20173;-73
2024/03/13 12:05:46;;;;;;;5.70;5.27;;;13.60;99.90;;;;;;5053250;28;20186;-74
2024/03/13 12:08:16;;;;;;;6.43;5.50;;;13.60;99.90;;;;;;5054590;28;20179;-74
2024/03/13 12:10:42;;;;;;;4.63;4.23;;;13.60;99.90;;;;;;5054287;28;20202;-73
2024/03/13 12:13:15;;;;;;;6.27;4.40;;;13.70;99.90;;;;;;5054555;28;20179;-74
2024/03/13 12:15:42;;;;;;;5.00;4.33;;;13.90;99.90;;;;;;5062306;28;20167;-76
2024/03/13 12:18:11;;;;;;;4.80;4.40;;;13.90;99.90;;;;;;5061434;28;20640;-74
2024/03/13 12:20:39;;;;;;;6.13;4.47;;;13.80;99.90;;;;;;5059228;28;20179;-73
2024/03/13 12:23:08;;;;;;;4.80;4.30;;;13.80;99.90;;;;;;5053746;28;20176;-74
2024/03/13 12:25:34;;;;;;;5.23;4.13;;;13.80;99.90;;;;;;5054287;28;20181;-73
2024/03/13 12:28:00;;;;;;;5.20;4.80;;;13.70;99.90;;;;;;5054107;28;20258;-73
2024/03/13 12:30:29;;;;;;;5.40;4.50;;;13.70;99.90;;;;;;5054249;28;20752;-73
2024/03/13 12:32:59;;;;;;;5.17;4.63;;;13.70;99.90;;;;;;5052628;28;20723;-73
2024/03/13 12:35:25;;;;;;;4.97;4.10;;;13.60;99.90;;;;;;5053575;28;20198;-73
2024/03/13 12:37:52;;;;;;;7.17;4.70;;;13.60;99.90;;;;;;5053944;28;20666;-73
2024/03/13 12:40:20;;;;;;;6.60;4.57;;;13.50;99.90;;;;;;5053971;28;20190;-72
2024/03/13 12:42:47;;;;;;;5.67;4.50;;;13.60;99.90;;;;;;5058459;28;20171;-72
2024/03/13 12:45:14;;;;;;;4.67;4.23;;;13.70;99.90;;;;;;5053025;28;20179;-72
2024/03/13 12:47:43;;;;;;;5.03;4.00;;;13.70;99.90;;;;;;5053802;28;20167;-72
2024/03/13 12:50:11;;;;;;;5.40;4.60;;;13.90;99.90;;;;;;5053997;28;20213;-73
2024/03/13 12:52:41;;;;;;;5.80;4.70;;;13.80;99.90;;;;;;5053268;28;20179;-72
2024/03/13 12:55:10;;;;;;;5.53;5.13;;;13.90;99.90;;;;;;5052862;28;20734;-72
2024/03/13 12:57:37;;;;;;;4.50;4.10;;;13.90;99.90;;;;;;5061053;28;20170;-73